createdAt,value
2023-10-28T00:00:52.431Z,20.55
2023-10-28T00:01:52.505Z,20.56
2023-10-28T00:02:49.962Z,20.58
2023-10-28T00:03:49.708Z,20.59
2023-10-28T00:04:49.627Z,20.59
2023-10-28T00:05:49.675Z,20.58
2023-10-28T00:06:50.528Z,20.60
2023-10-28T00:07:50.949Z,20.59
2023-10-28T00:08:50.747Z,20.61
2023-10-28T00:09:50.886Z,20.62
2023-10-28T00:10:52.281Z,20.61
2023-10-28T00:11:50.433Z,20.61
2023-10-28T00:12:49.082Z,20.61
2023-10-28T00:13:49.124Z,20.62
2023-10-28T00:14:50.250Z,20.61
2023-10-28T00:15:51.859Z,20.61
2023-10-28T00:16:51.036Z,20.62
2023-10-28T00:17:51.788Z,20.59
2023-10-28T00:18:51.208Z,20.60
2023-10-28T00:19:51.839Z,20.59
2023-10-28T00:20:49.992Z,20.59
2023-10-28T00:21:50.243Z,20.58
2023-10-28T00:22:50.786Z,20.60
2023-10-28T00:23:49.501Z,20.56
2023-10-28T00:24:51.169Z,20.55
2023-10-28T00:25:51.590Z,20.52
2023-10-28T00:26:51.858Z,20.53
2023-10-28T00:27:51.266Z,20.53
2023-10-28T00:28:51.552Z,20.51
2023-10-28T00:29:50.425Z,20.50
2023-10-28T00:30:50.469Z,20.49
2023-10-28T00:31:50.953Z,20.50
2023-10-28T00:32:50.854Z,20.5
2023-10-28T00:33:50.122Z,20.50
2023-10-28T00:34:50.903Z,20.5
2023-10-28T00:35:51.609Z,20.48
2023-10-28T00:36:51.473Z,20.5
2023-10-28T00:37:52.126Z,20.52
2023-10-28T00:38:52.296Z,20.54
2023-10-28T00:39:50.543Z,20.55
2023-10-28T00:40:50.116Z,20.54
2023-10-28T00:41:51.049Z,20.55
2023-10-28T00:42:50.963Z,20.54
2023-10-28T00:43:51.773Z,20.55
2023-10-28T00:44:51.048Z,20.55
2023-10-28T00:45:50.671Z,20.55
2023-10-28T00:46:49.701Z,20.54
2023-10-28T00:47:51.221Z,20.56
2023-10-28T00:48:50.698Z,20.56
2023-10-28T00:49:49.171Z,20.55
2023-10-28T00:50:50.816Z,20.53
2023-10-28T00:51:50.653Z,20.53
2023-10-28T00:52:51.399Z,20.51
2023-10-28T00:53:52.231Z,20.51
2023-10-28T00:54:51.068Z,20.48
2023-10-28T00:55:51.508Z,20.41
2023-10-28T00:56:50.301Z,20.36
2023-10-28T00:57:51.498Z,20.37
2023-10-28T00:58:52.500Z,20.38
2023-10-28T00:59:51.947Z,20.37
2023-10-28T01:00:52.122Z,20.30
2023-10-28T01:01:51.075Z,20.27
2023-10-28T01:02:49.513Z,20.21
2023-10-28T01:03:50.197Z,20.13
2023-10-28T01:04:48.991Z,20.11
2023-10-28T01:05:50.363Z,20.03
2023-10-28T01:06:51.641Z,19.91
2023-10-28T01:07:52.087Z,19.83
2023-10-28T01:08:52.354Z,19.80
2023-10-28T01:09:51.720Z,19.81
2023-10-28T01:10:51.023Z,19.87
2023-10-28T01:11:50.989Z,19.85
2023-10-28T01:12:51.452Z,19.88
2023-10-28T01:13:50.379Z,19.89
2023-10-28T01:14:51.048Z,19.90
2023-10-28T01:15:50.185Z,19.91
2023-10-28T01:16:51.081Z,19.88
2023-10-28T01:17:50.620Z,19.85
2023-10-28T01:18:50.902Z,19.81
2023-10-28T01:19:52.072Z,19.79
2023-10-28T01:20:50.584Z,19.80
2023-10-28T01:21:49.261Z,19.80
2023-10-28T01:22:49.914Z,19.76
2023-10-28T01:23:51.748Z,19.76
2023-10-28T01:24:51.726Z,19.77
2023-10-28T01:25:52.095Z,19.77
2023-10-28T01:26:52.148Z,19.75
2023-10-28T01:27:51.763Z,19.74
2023-10-28T01:28:50.280Z,19.75
2023-10-28T01:29:49.788Z,19.76
2023-10-28T01:30:50.491Z,19.74
2023-10-28T01:31:51.324Z,19.67
2023-10-28T01:32:52.134Z,19.69
2023-10-28T01:33:51.482Z,19.65
2023-10-28T01:34:51.802Z,19.69
2023-10-28T01:35:51.310Z,19.71
2023-10-28T01:36:51.684Z,19.77
2023-10-28T01:37:50.991Z,19.78
2023-10-28T01:38:52.094Z,19.79
2023-10-28T01:39:52.078Z,19.85
2023-10-28T01:40:52.845Z,19.87
2023-10-28T01:41:52.523Z,19.88
2023-10-28T01:42:52.046Z,19.80
2023-10-28T01:43:52.028Z,19.90
2023-10-28T01:44:51.395Z,19.92
2023-10-28T01:45:52.616Z,19.95
2023-10-28T01:46:51.183Z,19.96
2023-10-28T01:47:50.415Z,19.97
2023-10-28T01:48:51.192Z,20.01
2023-10-28T01:49:51.235Z,20.04
2023-10-28T01:50:51.255Z,20.06
2023-10-28T01:51:51.677Z,20.07
2023-10-28T01:52:51.793Z,20.10
2023-10-28T01:53:52.056Z,20.12
2023-10-28T01:54:51.303Z,20.10
2023-10-28T01:55:51.833Z,20.12
2023-10-28T01:56:51.818Z,20.14
2023-10-28T01:57:52.190Z,20.16
2023-10-28T01:58:50.419Z,20.14
2023-10-28T01:59:50.510Z,20.14
2023-10-28T02:00:52.608Z,20.14
2023-10-28T02:01:52.020Z,20.12
2023-10-28T02:02:50.880Z,20.07
2023-10-28T02:03:51.797Z,20.04
2023-10-28T02:04:49.706Z,20.05
2023-10-28T02:05:49.754Z,20.04
2023-10-28T02:06:51.222Z,19.99
2023-10-28T02:07:49.681Z,19.97
2023-10-28T02:08:51.354Z,19.97
2023-10-28T02:09:51.325Z,19.97
2023-10-28T02:10:52.815Z,19.96
2023-10-28T02:11:51.832Z,19.93
2023-10-28T02:12:51.501Z,19.93
2023-10-28T02:13:52.207Z,19.90
2023-10-28T02:14:52.025Z,19.91
2023-10-28T02:15:50.274Z,19.86
2023-10-28T02:16:51.494Z,19.77
2023-10-28T02:17:51.490Z,19.81
2023-10-28T02:18:51.196Z,19.82
2023-10-28T02:19:51.214Z,19.87
2023-10-28T02:20:50.937Z,19.85
2023-10-28T02:21:59.180Z,19.86
2023-10-28T02:22:50.789Z,19.86
2023-10-28T02:23:50.712Z,19.88
2023-10-28T02:24:52.466Z,19.86
2023-10-28T02:25:53.152Z,19.86
2023-10-28T02:26:51.955Z,19.85
2023-10-28T02:27:52.888Z,19.87
2023-10-28T02:28:52.623Z,19.86
2023-10-28T02:29:51.675Z,19.85
2023-10-28T02:30:51.979Z,19.79
2023-10-28T02:31:52.291Z,19.79
2023-10-28T02:32:51.763Z,19.72
2023-10-28T02:33:50.886Z,19.70
2023-10-28T02:34:51.866Z,19.63
2023-10-28T02:35:52.928Z,19.61
2023-10-28T02:36:51.332Z,19.54
2023-10-28T02:37:51.608Z,19.46
2023-10-28T02:38:51.793Z,19.39
2023-10-28T02:39:51.882Z,19.43
2023-10-28T02:40:52.184Z,19.43
2023-10-28T02:41:52.166Z,19.42
2023-10-28T02:42:51.602Z,19.40
2023-10-28T02:43:51.698Z,19.40
2023-10-28T02:44:51.144Z,19.44
2023-10-28T02:45:51.772Z,19.42
2023-10-28T02:46:51.366Z,19.42
2023-10-28T02:47:51.375Z,19.37
2023-10-28T02:48:52.075Z,19.33
2023-10-28T02:49:51.400Z,19.32
2023-10-28T02:50:52.039Z,19.32
2023-10-28T02:51:52.307Z,19.35
2023-10-28T02:52:51.869Z,19.38
2023-10-28T02:53:52.071Z,19.36
2023-10-28T02:54:50.885Z,19.37
2023-10-28T02:55:51.657Z,19.37
2023-10-28T02:56:51.490Z,19.37
2023-10-28T02:57:51.759Z,19.41
2023-10-28T02:58:52.568Z,19.34
2023-10-28T02:59:51.520Z,19.19
2023-10-28T03:00:52.304Z,19.11
2023-10-28T03:01:51.677Z,19.17
2023-10-28T03:02:52.340Z,19.14
2023-10-28T03:03:51.510Z,19.25
2023-10-28T03:04:51.380Z,19.14
2023-10-28T03:05:51.289Z,19.09
2023-10-28T03:06:50.527Z,19.04
2023-10-28T03:07:51.899Z,18.95
2023-10-28T03:08:50.941Z,18.99
2023-10-28T03:09:52.611Z,18.98
2023-10-28T03:10:51.478Z,18.96
2023-10-28T03:11:51.891Z,18.85
2023-10-28T03:12:51.980Z,18.86
2023-10-28T03:13:51.215Z,18.75
2023-10-28T03:14:51.801Z,18.72
2023-10-28T03:15:53.205Z,18.71
2023-10-28T03:16:53.394Z,18.74
2023-10-28T03:17:53.356Z,18.72
2023-10-28T03:18:52.923Z,18.72
2023-10-28T03:19:52.484Z,18.62
2023-10-28T03:20:53.236Z,18.64
2023-10-28T03:21:54.401Z,18.63
2023-10-28T03:22:53.269Z,18.67
2023-10-28T03:23:52.396Z,18.62
2023-10-28T03:24:51.175Z,18.62
2023-10-28T03:25:49.974Z,18.61
2023-10-28T03:26:51.544Z,18.51
2023-10-28T03:27:51.686Z,18.48
2023-10-28T03:28:51.857Z,18.44
2023-10-28T03:29:51.167Z,18.43
2023-10-28T03:30:50.312Z,18.40
2023-10-28T03:31:51.267Z,18.43
2023-10-28T03:32:49.437Z,18.39
2023-10-28T03:33:50.309Z,18.48
2023-10-28T03:34:52.071Z,18.44
2023-10-28T03:35:50.137Z,18.43
2023-10-28T03:36:51.112Z,18.47
2023-10-28T03:37:51.880Z,18.5
2023-10-28T03:38:50.375Z,18.46
2023-10-28T03:39:50.917Z,18.52
2023-10-28T03:40:52.450Z,18.56
2023-10-28T03:41:50.859Z,18.55
2023-10-28T03:42:51.263Z,18.63
2023-10-28T03:43:51.556Z,18.67
2023-10-28T03:44:51.001Z,18.74
2023-10-28T03:45:52.297Z,18.77
2023-10-28T03:46:52.253Z,18.81
2023-10-28T03:47:51.895Z,18.86
2023-10-28T03:48:52.060Z,18.87
2023-10-28T03:49:52.662Z,18.92
2023-10-28T03:50:50.542Z,18.95
2023-10-28T03:51:51.877Z,18.98
2023-10-28T03:52:51.408Z,19.01
2023-10-28T03:53:51.112Z,19.03
2023-10-28T03:54:50.784Z,19.04
2023-10-28T03:55:51.037Z,19.04
2023-10-28T03:56:50.633Z,19.08
2023-10-28T03:57:52.672Z,19.05
2023-10-28T03:58:51.568Z,19.05
2023-10-28T03:59:52.533Z,19.08
2023-10-28T04:00:52.232Z,19.08
2023-10-28T04:01:50.102Z,19.08
2023-10-28T04:02:51.773Z,19.08
2023-10-28T04:03:51.657Z,19.09
2023-10-28T04:04:50.983Z,19.03
2023-10-28T04:05:52.442Z,19.07
2023-10-28T04:06:50.869Z,19.07
2023-10-28T04:07:51.753Z,19.10
2023-10-28T04:08:51.411Z,19.12
2023-10-28T04:09:52.683Z,19.09
2023-10-28T04:10:52.535Z,19.03
2023-10-28T04:11:50.672Z,19.06
2023-10-28T04:12:51.132Z,19.09
2023-10-28T04:13:52.633Z,19.09
2023-10-28T04:14:50.928Z,19.06
2023-10-28T04:15:52.245Z,19.06
2023-10-28T04:16:51.531Z,19.08
2023-10-28T04:17:51.564Z,19.06
2023-10-28T04:18:50.791Z,19.04
2023-10-28T04:19:52.019Z,19.04
2023-10-28T04:20:50.054Z,19.01
2023-10-28T04:21:52.252Z,19.05
2023-10-28T04:22:51.449Z,19.10
2023-10-28T04:23:52.010Z,19.11
2023-10-28T04:24:52.017Z,19.13
2023-10-28T04:25:52.976Z,19.10
2023-10-28T04:26:52.863Z,19.15
2023-10-28T04:27:53.076Z,19.15
2023-10-28T04:28:51.939Z,19.07
2023-10-28T04:29:50.804Z,19.12
2023-10-28T04:30:52.140Z,19.12
2023-10-28T04:31:53.076Z,19.09
2023-10-28T04:32:53.255Z,19.06
2023-10-28T04:33:51.183Z,19.05
2023-10-28T04:34:56.383Z,19.03
2023-10-28T04:35:55.512Z,18.98
2023-10-28T04:36:51.145Z,18.99
2023-10-28T04:37:50.540Z,19.01
2023-10-28T04:38:51.130Z,18.95
2023-10-28T04:39:51.608Z,18.89
2023-10-28T04:40:51.994Z,18.80
2023-10-28T04:41:50.242Z,18.84
2023-10-28T04:42:50.587Z,18.94
2023-10-28T04:43:51.504Z,18.98
2023-10-28T04:44:51.866Z,19.02
2023-10-28T04:45:52.109Z,19.06
2023-10-28T04:46:51.574Z,19.04
2023-10-28T04:47:53.055Z,19.04
2023-10-28T04:48:51.056Z,19.08
2023-10-28T04:49:50.936Z,19.13
2023-10-28T04:50:52.049Z,19.14
2023-10-28T04:51:51.540Z,19.12
2023-10-28T04:52:52.511Z,19.11
2023-10-28T04:53:51.501Z,19.16
2023-10-28T04:54:52.408Z,19.16
2023-10-28T04:55:52.898Z,19.17
2023-10-28T04:56:52.424Z,19.14
2023-10-28T04:57:51.452Z,19.09
2023-10-28T04:58:52.021Z,19.05
2023-10-28T04:59:50.382Z,19.07
2023-10-28T05:00:52.235Z,19.09
2023-10-28T05:01:51.504Z,19.09
2023-10-28T05:02:50.897Z,19.08
2023-10-28T05:03:49.945Z,19.03
2023-10-28T05:04:51.230Z,18.99
2023-10-28T05:05:51.923Z,19.01
2023-10-28T05:06:51.805Z,19.04
2023-10-28T05:07:49.631Z,18.95
2023-10-28T05:08:47.694Z,18.92
2023-10-28T05:09:49.126Z,18.95
2023-10-28T05:10:50.263Z,18.86
2023-10-28T05:11:50.741Z,18.86
2023-10-28T05:12:50.704Z,18.83
2023-10-28T05:13:51.557Z,18.89
2023-10-28T05:14:51.896Z,18.83
2023-10-28T05:15:52.372Z,18.79
2023-10-28T05:16:51.256Z,18.79
2023-10-28T05:17:51.644Z,18.84
2023-10-28T05:18:51.498Z,18.81
2023-10-28T05:19:50.954Z,18.78
2023-10-28T05:20:50.057Z,18.82
2023-10-28T05:21:51.064Z,18.86
2023-10-28T05:22:51.672Z,18.79
2023-10-28T05:23:51.135Z,18.79
2023-10-28T05:24:52.123Z,18.78
2023-10-28T05:25:50.884Z,18.80
2023-10-28T05:26:52.827Z,18.81
2023-10-28T05:27:52.286Z,18.75
2023-10-28T05:28:51.899Z,18.75
2023-10-28T05:29:51.903Z,18.75
2023-10-28T05:30:51.117Z,18.75
2023-10-28T05:31:51.141Z,18.76
2023-10-28T05:32:51.538Z,18.79
2023-10-28T05:33:51.346Z,18.77
2023-10-28T05:34:51.912Z,18.77
2023-10-28T05:35:50.330Z,18.79
2023-10-28T05:36:50.805Z,18.82
2023-10-28T05:37:51.832Z,18.78
2023-10-28T05:38:51.656Z,18.76
2023-10-28T05:39:51.510Z,18.77
2023-10-28T05:40:51.794Z,18.68
2023-10-28T05:41:50.980Z,18.65
2023-10-28T05:42:51.990Z,18.69
2023-10-28T05:43:49.750Z,18.63
2023-10-28T05:44:51.098Z,18.56
2023-10-28T05:45:52.316Z,18.64
2023-10-28T05:46:50.746Z,18.70
2023-10-28T05:47:51.790Z,18.68
2023-10-28T05:48:51.248Z,18.67
2023-10-28T05:49:51.701Z,18.64
2023-10-28T05:50:51.508Z,18.63
2023-10-28T05:51:49.789Z,18.67
2023-10-28T05:52:48.713Z,18.72
2023-10-28T05:53:50.429Z,18.69
2023-10-28T05:54:50.803Z,18.72
2023-10-28T05:55:51.900Z,18.73
2023-10-28T05:56:51.204Z,18.76
2023-10-28T05:57:51.501Z,18.77
2023-10-28T05:58:49.819Z,18.76
2023-10-28T05:59:50.831Z,18.73
2023-10-28T06:00:50.672Z,18.76
2023-10-28T06:01:51.676Z,18.69
2023-10-28T06:02:52.029Z,18.69
2023-10-28T06:03:51.772Z,18.62
2023-10-28T06:04:51.006Z,18.63
2023-10-28T06:05:49.366Z,18.64
2023-10-28T06:06:50.236Z,18.64
2023-10-28T06:07:51.953Z,18.64
2023-10-28T06:08:51.741Z,18.60
2023-10-28T06:09:51.632Z,18.56
2023-10-28T06:10:51.939Z,18.63
2023-10-28T06:11:51.734Z,18.63
2023-10-28T06:12:51.795Z,18.61
2023-10-28T06:13:51.474Z,18.63
2023-10-28T06:14:50.745Z,18.67
2023-10-28T06:15:51.198Z,18.65
2023-10-28T06:16:50.414Z,18.70
2023-10-28T06:17:50.744Z,18.73
2023-10-28T06:18:51.255Z,18.71
2023-10-28T06:19:51.808Z,18.73
2023-10-28T06:20:51.588Z,18.76
2023-10-28T06:21:50.340Z,18.74
2023-10-28T06:22:51.352Z,18.65
2023-10-28T06:23:49.985Z,18.70
2023-10-28T06:24:49.875Z,18.70
2023-10-28T06:25:52.068Z,18.71
2023-10-28T06:26:52.009Z,18.67
2023-10-28T06:27:52.360Z,18.70
2023-10-28T06:28:51.726Z,18.67
2023-10-28T06:29:51.309Z,18.62
2023-10-28T06:30:51.725Z,18.59
2023-10-28T06:31:52.154Z,18.68
2023-10-28T06:32:51.801Z,18.70
2023-10-28T06:33:49.991Z,18.70
2023-10-28T06:34:51.043Z,18.76
2023-10-28T06:35:50.587Z,18.75
2023-10-28T06:36:51.098Z,18.65
2023-10-28T06:37:52.209Z,18.62
2023-10-28T06:38:50.355Z,18.72
2023-10-28T06:39:52.666Z,18.71
2023-10-28T06:40:51.343Z,18.62
2023-10-28T06:41:51.693Z,18.74
2023-10-28T06:42:52.683Z,18.79
2023-10-28T06:43:52.028Z,18.85
2023-10-28T06:44:50.711Z,18.88
2023-10-28T06:45:50.499Z,18.95
2023-10-28T06:46:51.739Z,18.98
2023-10-28T06:47:49.877Z,18.97
2023-10-28T06:48:50.799Z,18.98
2023-10-28T06:49:51.485Z,18.96
2023-10-28T06:50:51.672Z,19.00
2023-10-28T06:51:51.380Z,19.02
2023-10-28T06:52:51.671Z,19.08
2023-10-28T06:53:50.912Z,19.04
2023-10-28T06:54:51.155Z,19.01
2023-10-28T06:55:50.057Z,19.01
2023-10-28T06:56:49.069Z,19.09
2023-10-28T06:57:50.018Z,19.10
2023-10-28T06:58:50.671Z,19.06
2023-10-28T06:59:50.441Z,19.10
2023-10-28T07:00:51.098Z,19.13
2023-10-28T07:01:51.645Z,19.17
2023-10-28T07:02:51.804Z,19.15
2023-10-28T07:03:51.229Z,19.18
2023-10-28T07:04:51.974Z,19.22
2023-10-28T07:05:50.241Z,19.26
2023-10-28T07:06:51.150Z,19.29
2023-10-28T07:07:50.637Z,19.27
2023-10-28T07:08:51.265Z,19.29
2023-10-28T07:09:49.657Z,19.33
2023-10-28T07:10:50.087Z,19.34
2023-10-28T07:11:51.241Z,19.37
2023-10-28T07:12:51.628Z,19.31
2023-10-28T07:13:51.999Z,19.28
2023-10-28T07:14:53.315Z,19.33
2023-10-28T07:15:53.713Z,19.38
2023-10-28T07:16:53.318Z,19.33
2023-10-28T07:17:52.491Z,19.39
2023-10-28T07:18:51.371Z,19.44
2023-10-28T07:19:51.463Z,19.45
2023-10-28T07:20:50.746Z,19.45
2023-10-28T07:21:50.024Z,19.5
2023-10-28T07:22:50.098Z,19.56
2023-10-28T07:23:50.673Z,19.55
2023-10-28T07:24:50.932Z,19.52
2023-10-28T07:25:50.531Z,19.55
2023-10-28T07:26:51.759Z,19.53
2023-10-28T07:27:50.893Z,19.55
2023-10-28T07:28:49.437Z,19.54
2023-10-28T07:29:50.382Z,19.41
2023-10-28T07:30:49.038Z,19.47
2023-10-28T07:31:49.740Z,19.56
2023-10-28T07:32:50.144Z,19.61
2023-10-28T07:33:49.256Z,19.66
2023-10-28T07:34:49.176Z,19.62
2023-10-28T07:35:50.257Z,19.64
2023-10-28T07:36:50.393Z,19.59
2023-10-28T07:37:50.929Z,19.60
2023-10-28T07:38:52.226Z,19.61
2023-10-28T07:39:51.810Z,19.68
2023-10-28T07:40:51.716Z,19.65
2023-10-28T07:41:52.434Z,19.65
2023-10-28T07:42:51.393Z,19.65
2023-10-28T07:43:52.109Z,19.75
2023-10-28T07:44:51.726Z,19.76
2023-10-28T07:45:50.677Z,19.83
2023-10-28T07:46:51.438Z,19.85
2023-10-28T07:47:51.583Z,19.81
2023-10-28T07:48:51.731Z,19.87
2023-10-28T07:49:51.615Z,19.95
2023-10-28T07:50:50.846Z,20.00
2023-10-28T07:51:50.546Z,20.03
2023-10-28T07:52:50.445Z,20.10
2023-10-28T07:53:49.020Z,20.11
2023-10-28T07:54:49.634Z,20.13
2023-10-28T07:55:50.303Z,20.12
2023-10-28T07:56:50.201Z,20.19
2023-10-28T07:57:51.246Z,20.18
2023-10-28T07:58:51.805Z,20.16
2023-10-28T07:59:51.115Z,20.14
2023-10-28T08:00:50.443Z,20.20
2023-10-28T08:01:50.480Z,20.19
2023-10-28T08:02:52.261Z,20.19
2023-10-28T08:03:51.711Z,20.25
2023-10-28T08:04:50.434Z,20.20
2023-10-28T08:05:49.685Z,20.23
2023-10-28T08:06:50.918Z,20.19
2023-10-28T08:07:51.519Z,20.22
2023-10-28T08:08:51.781Z,20.23
2023-10-28T08:09:51.677Z,20.22
2023-10-28T08:10:51.468Z,20.26
2023-10-28T08:11:52.018Z,20.22
2023-10-28T08:12:52.375Z,20.19
2023-10-28T08:13:52.607Z,20.22
2023-10-28T08:14:52.356Z,20.29
2023-10-28T08:15:52.767Z,20.30
2023-10-28T08:16:52.849Z,20.31
2023-10-28T08:17:51.914Z,20.29
2023-10-28T08:18:52.532Z,20.33
2023-10-28T08:19:50.760Z,20.32
2023-10-28T08:20:52.001Z,20.34
2023-10-28T08:21:52.723Z,20.42
2023-10-28T08:22:51.262Z,20.47
2023-10-28T08:23:51.819Z,20.52
2023-10-28T08:24:51.693Z,20.59
2023-10-28T08:25:51.243Z,20.62
2023-10-28T08:26:51.796Z,20.61
2023-10-28T08:27:51.941Z,20.64
2023-10-28T08:28:51.516Z,20.72
2023-10-28T08:29:49.694Z,20.68
2023-10-28T08:30:52.192Z,20.70
2023-10-28T08:31:52.059Z,20.71
2023-10-28T08:32:52.022Z,20.79
2023-10-28T08:33:52.828Z,20.75
2023-10-28T08:34:52.477Z,20.75
2023-10-28T08:35:52.432Z,20.79
2023-10-28T08:36:52.108Z,20.82
2023-10-28T08:37:51.544Z,20.80
2023-10-28T08:38:50.607Z,20.77
2023-10-28T08:39:51.552Z,20.83
2023-10-28T08:40:51.747Z,20.82
2023-10-28T08:41:50.297Z,20.83
2023-10-28T08:42:50.522Z,20.83
2023-10-28T08:43:50.959Z,20.90
2023-10-28T08:44:52.441Z,20.95
2023-10-28T08:45:51.973Z,20.96
2023-10-28T08:46:52.034Z,20.93
2023-10-28T08:47:52.184Z,20.94
2023-10-28T08:48:53.650Z,20.85
2023-10-28T08:49:52.947Z,20.88
2023-10-28T08:50:51.271Z,20.95
2023-10-28T08:51:52.170Z,20.98
2023-10-28T08:52:52.297Z,21.02
2023-10-28T08:53:51.931Z,20.96
2023-10-28T08:54:52.715Z,21.01
2023-10-28T08:55:52.368Z,21.03
2023-10-28T08:56:50.959Z,21.07
2023-10-28T08:57:51.180Z,21.09
2023-10-28T08:58:50.670Z,21.15
2023-10-28T08:59:50.947Z,21.11
2023-10-28T09:00:55.930Z,21.13
2023-10-28T09:01:54.153Z,21.12
2023-10-28T09:02:53.737Z,21.13
2023-10-28T09:03:52.441Z,21.12
2023-10-28T09:04:51.629Z,21.15
2023-10-28T09:05:52.463Z,21.19
2023-10-28T09:06:51.797Z,21.21
2023-10-28T09:07:51.480Z,21.18
2023-10-28T09:08:51.227Z,21.33
2023-10-28T09:09:50.500Z,21.36
2023-10-28T09:10:51.328Z,21.43
2023-10-28T09:11:52.903Z,21.40
2023-10-28T09:12:52.930Z,21.39
2023-10-28T09:13:52.697Z,21.48
2023-10-28T09:14:51.947Z,21.52
2023-10-28T09:15:51.247Z,21.48
2023-10-28T09:16:50.631Z,21.40
2023-10-28T09:17:49.955Z,21.42
2023-10-28T09:18:52.084Z,21.45
2023-10-28T09:19:52.225Z,21.47
2023-10-28T09:20:50.835Z,21.48
2023-10-28T09:21:51.272Z,21.57
2023-10-28T09:22:51.592Z,21.54
2023-10-28T09:23:50.989Z,21.55
2023-10-28T09:24:52.580Z,21.58
2023-10-28T09:25:52.002Z,21.57
2023-10-28T09:26:51.389Z,21.59
2023-10-28T09:27:51.694Z,21.59
2023-10-28T09:28:51.627Z,21.61
2023-10-28T09:29:52.180Z,21.65
2023-10-28T09:30:52.210Z,21.75
2023-10-28T09:31:50.457Z,21.71
2023-10-28T09:32:48.770Z,21.82
2023-10-28T09:33:49.872Z,21.90
2023-10-28T09:34:51.767Z,22.01
2023-10-28T09:35:52.571Z,22.11
2023-10-28T09:36:51.917Z,22.16
2023-10-28T09:37:51.730Z,22.27
2023-10-28T09:38:52.363Z,22.31
2023-10-28T09:39:51.727Z,22.47
2023-10-28T09:40:50.835Z,22.62
2023-10-28T09:41:51.942Z,22.68
2023-10-28T09:42:52.096Z,22.77
2023-10-28T09:43:51.416Z,22.93
2023-10-28T09:44:51.156Z,23.00
2023-10-28T09:45:50.978Z,23.13
2023-10-28T09:46:52.002Z,23.19
2023-10-28T09:47:51.510Z,23.30
2023-10-28T09:48:51.524Z,23.46
2023-10-28T09:49:49.328Z,23.55
2023-10-28T09:50:50.269Z,23.65
2023-10-28T09:51:49.912Z,23.79
2023-10-28T09:52:50.397Z,23.88
2023-10-28T09:53:51.332Z,23.94
2023-10-28T09:54:51.793Z,23.90
2023-10-28T09:55:52.404Z,23.79
2023-10-28T09:56:51.932Z,23.82
2023-10-28T09:57:50.885Z,23.90
2023-10-28T09:58:51.437Z,23.89
2023-10-28T09:59:51.847Z,23.91
2023-10-28T10:00:53.141Z,23.83
2023-10-28T10:01:50.298Z,23.86
2023-10-28T10:02:51.142Z,23.76
2023-10-28T10:03:51.999Z,23.73
2023-10-28T10:04:49.488Z,23.80
2023-10-28T10:05:49.747Z,23.82
2023-10-28T10:06:51.302Z,23.77
2023-10-28T10:07:51.728Z,23.88
2023-10-28T10:08:52.278Z,23.90
2023-10-28T10:09:50.137Z,23.97
2023-10-28T10:10:51.361Z,24.00
2023-10-28T10:11:51.200Z,24.07
2023-10-28T10:12:51.173Z,24.09
2023-10-28T10:13:50.960Z,24.02
2023-10-28T10:14:50.284Z,24
2023-10-28T10:15:49.977Z,23.96
2023-10-28T10:16:50.663Z,24
2023-10-28T10:17:50.450Z,24.01
2023-10-28T10:18:51.289Z,24.02
2023-10-28T10:19:52.408Z,23.96
2023-10-28T10:20:52.519Z,23.89
2023-10-28T10:21:53.234Z,23.76
2023-10-28T10:22:52.878Z,23.73
2023-10-28T10:23:52.220Z,23.67
2023-10-28T10:24:53.146Z,23.56
2023-10-28T10:25:52.927Z,23.49
2023-10-28T10:26:52.578Z,23.39
2023-10-28T10:27:50.503Z,23.44
2023-10-28T10:28:51.446Z,23.35
2023-10-28T10:29:50.568Z,23.36
2023-10-28T10:30:50.860Z,23.30
2023-10-28T10:31:50.961Z,23.21
2023-10-28T10:32:50.237Z,23.13
2023-10-28T10:33:50.300Z,23.06
2023-10-28T10:34:50.552Z,23.05
2023-10-28T10:35:51.422Z,23.04
2023-10-28T10:36:49.660Z,23.02
2023-10-28T10:37:49.795Z,22.99
2023-10-28T10:38:50.909Z,23.11
2023-10-28T10:39:51.608Z,23.12
2023-10-28T10:40:52.253Z,23.09
2023-10-28T10:41:52.176Z,23.09
2023-10-28T10:42:51.418Z,23.13
2023-10-28T10:43:51.335Z,23.12
2023-10-28T10:44:52.076Z,23.18
2023-10-28T10:45:52.801Z,23.17
2023-10-28T10:46:52.585Z,23.21
2023-10-28T10:47:51.640Z,23.28
2023-10-28T10:48:50.258Z,23.39
2023-10-28T10:49:51.431Z,23.44
2023-10-28T10:50:51.852Z,23.48
2023-10-28T10:51:52.639Z,23.59
2023-10-28T10:52:50.931Z,23.60
2023-10-28T10:53:51.912Z,23.64
2023-10-28T10:54:50.445Z,23.68
2023-10-28T10:55:50.807Z,23.65
2023-10-28T10:56:51.712Z,23.66
2023-10-28T10:57:51.612Z,23.71
2023-10-28T10:58:51.221Z,23.78
2023-10-28T10:59:51.150Z,23.81
2023-10-28T11:00:51.920Z,23.77
2023-10-28T11:01:52.571Z,23.71
2023-10-28T11:02:52.903Z,23.76
2023-10-28T11:03:51.454Z,23.86
2023-10-28T11:04:51.749Z,23.91
2023-10-28T11:05:50.686Z,23.89
2023-10-28T11:06:50.489Z,23.93
2023-10-28T11:07:52.247Z,23.99
2023-10-28T11:08:51.816Z,24.02
2023-10-28T11:09:50.192Z,24.11
2023-10-28T11:10:52.209Z,24.22
2023-10-28T11:11:52.012Z,24.39
2023-10-28T11:12:50.561Z,24.40
2023-10-28T11:13:48.821Z,24.32
2023-10-28T11:14:51.404Z,24.34
2023-10-28T11:15:51.683Z,24.38
2023-10-28T11:16:51.390Z,24.39
2023-10-28T11:17:51.971Z,24.37
2023-10-28T11:18:49.269Z,24.35
2023-10-28T11:19:51.067Z,24.29
2023-10-28T11:20:52.050Z,24.41
2023-10-28T11:21:52.262Z,24.43
2023-10-28T11:22:52.415Z,24.42
2023-10-28T11:23:52.363Z,24.43
2023-10-28T11:24:52.565Z,24.45
2023-10-28T11:25:52.070Z,24.49
2023-10-28T11:26:51.568Z,24.52
2023-10-28T11:27:51.866Z,24.48
2023-10-28T11:28:50.784Z,24.51
2023-10-28T11:29:51.069Z,24.67
2023-10-28T11:30:51.478Z,24.75
2023-10-28T11:31:51.846Z,24.79
2023-10-28T11:32:51.114Z,24.83
2023-10-28T11:33:51.109Z,24.86
2023-10-28T11:34:50.155Z,24.89
2023-10-28T11:35:51.553Z,24.87
2023-10-28T11:36:49.775Z,24.93
2023-10-28T11:37:51.140Z,24.96
2023-10-28T11:38:51.868Z,25.05
2023-10-28T11:39:51.351Z,25.02
2023-10-28T11:40:51.026Z,25.00
2023-10-28T11:41:51.045Z,25.05
2023-10-28T11:42:51.926Z,25.07
2023-10-28T11:43:52.249Z,25.09
2023-10-28T11:44:51.798Z,25.20
2023-10-28T11:45:51.339Z,25.19
2023-10-28T11:46:50.136Z,25.20
2023-10-28T11:47:51.439Z,25.23
2023-10-28T11:48:51.926Z,25.34
2023-10-28T11:49:51.366Z,25.43
2023-10-28T11:50:49.662Z,25.54
2023-10-28T11:51:50.649Z,25.57
2023-10-28T11:52:49.377Z,25.65
2023-10-28T11:53:50.788Z,25.75
2023-10-28T11:54:50.282Z,25.79
2023-10-28T11:55:50.310Z,25.78
2023-10-28T11:56:51.631Z,25.78
2023-10-28T11:57:52.421Z,25.77
2023-10-28T11:58:51.683Z,25.65
2023-10-28T11:59:51.146Z,25.69
2023-10-28T12:00:53.518Z,25.72
2023-10-28T12:01:54.710Z,25.77
2023-10-28T12:02:53.141Z,25.79
2023-10-28T12:03:52.188Z,25.78
2023-10-28T12:04:52.121Z,25.81
2023-10-28T12:05:52.657Z,25.82
2023-10-28T12:06:52.005Z,25.83
2023-10-28T12:07:51.458Z,25.88
2023-10-28T12:08:49.910Z,25.95
2023-10-28T12:09:50.988Z,25.97
2023-10-28T12:10:49.814Z,26.00
2023-10-28T12:11:49.879Z,26.10
2023-10-28T12:12:50.537Z,26.03
2023-10-28T12:13:51.397Z,26.04
2023-10-28T12:14:50.428Z,25.97
2023-10-28T12:15:50.005Z,25.95
2023-10-28T12:16:50.802Z,25.88
2023-10-28T12:17:50.853Z,25.76
2023-10-28T12:18:51.471Z,25.71
2023-10-28T12:19:50.566Z,25.66
2023-10-28T12:20:51.179Z,25.67
2023-10-28T12:21:51.698Z,25.75
2023-10-28T12:22:52.498Z,25.80
2023-10-28T12:23:52.279Z,25.81
2023-10-28T12:24:52.466Z,25.78
2023-10-28T12:25:52.904Z,25.76
2023-10-28T12:26:52.862Z,25.74
2023-10-28T12:27:52.385Z,25.71
2023-10-28T12:28:51.797Z,25.72
2023-10-28T12:29:51.297Z,25.66
2023-10-28T12:30:52.408Z,25.63
2023-10-28T12:31:51.936Z,25.71
2023-10-28T12:32:52.327Z,25.83
2023-10-28T12:33:52.115Z,25.80
2023-10-28T12:34:52.694Z,25.71
2023-10-28T12:35:49.645Z,25.69
2023-10-28T12:36:50.395Z,25.69
2023-10-28T12:37:51.823Z,25.75
2023-10-28T12:38:51.837Z,25.78
2023-10-28T12:39:51.849Z,25.76
2023-10-28T12:40:51.184Z,25.71
2023-10-28T12:41:51.244Z,25.70
2023-10-28T12:42:51.599Z,25.63
2023-10-28T12:43:51.211Z,25.60
2023-10-28T12:44:51.305Z,25.54
2023-10-28T12:45:52.090Z,25.47
2023-10-28T12:46:52.209Z,25.49
2023-10-28T12:47:51.881Z,25.45
2023-10-28T12:48:51.213Z,25.45
2023-10-28T12:49:51.845Z,25.45
2023-10-28T12:50:52.925Z,25.45
2023-10-28T12:51:52.273Z,25.37
2023-10-28T12:52:52.549Z,25.39
2023-10-28T12:53:52.849Z,25.48